Time;durP1;ratioP1;P1;durP2;ratioP2;P2;SDS_P1;SDS_P2;PMS_P1;PMS_P2;Temp;Humidity;BMP_temperature;BMP_pressure;BME280_temperature;BME280_humidity;BME280_pressure;Samples;Min_cycle;Max_cycle;Signal;HPM_P1;HPM_P2
2021/10/12 00:02:21;;;;;;;0.20;0.20;;;;;;;6.36;100.00;101233.56;5054330;28;20059;-84
2021/10/12 00:04:50;;;;;;;0.20;0.20;;;;;;;6.38;100.00;101234.13;5054239;28;20496;-85
2021/10/12 00:07:23;;;;;;;0.25;0.25;;;;;;;6.29;100.00;101226.41;5055091;28;20057;-85
2021/10/12 00:09:56;;;;;;;0.20;0.20;;;;;;;6.39;100.00;101214.97;5054960;28;20060;-86
2021/10/12 00:12:34;;;;;;;0.30;0.30;;;;;;;6.53;100.00;101226.38;5049111;28;20059;-83
2021/10/12 00:15:02;;;;;;;0.20;0.20;;;;;;;6.53;100.00;101214.72;5055464;28;20284;-84
2021/10/12 00:17:32;;;;;;;0.20;0.20;;;;;;;6.58;100.00;101215.63;5051131;28;20037;-83
2021/10/12 00:20:06;;;;;;;0.20;0.20;;;;;;;6.67;100.00;101220.66;5054845;28;20127;-86
2021/10/12 00:22:36;;;;;;;0.20;0.20;;;;;;;6.74;100.00;101221.34;5042826;28;20060;-82
2021/10/12 00:25:05;;;;;;;0.30;0.30;;;;;;;6.76;100.00;101220.03;5052369;28;20072;-82
2021/10/12 00:27:38;;;;;;;0.20;0.20;;;;;;;6.68;100.00;101206.91;5072183;28;20049;-83
2021/10/12 00:30:13;;;;;;;0.20;0.20;;;;;;;6.67;100.00;101218.81;5053626;28;20056;-83
2021/10/12 00:32:47;;;;;;;0.22;0.22;;;;;;;6.71;100.00;101221.84;5067356;28;20044;-83
2021/10/12 00:35:16;;;;;;;0.10;0.10;;;;;;;6.57;100.00;101189.69;5068438;28;20123;-83
2021/10/12 00:37:49;;;;;;;0.30;0.30;;;;;;;6.77;100.00;101210.06;5055098;28;20049;-85
2021/10/12 00:40:19;;;;;;;0.20;0.20;;;;;;;6.79;100.00;101197.94;5054486;28;20061;-84
2021/10/12 00:42:52;;;;;;;0.30;0.30;;;;;;;6.75;100.00;101207.59;5040793;28;20052;-85
2021/10/12 00:45:25;;;;;;;0.20;0.20;;;;;;;6.78;100.00;101196.28;5065736;28;20048;-84
2021/10/12 00:48:02;;;;;;;0.20;0.20;;;;;;;6.67;100.00;101199.88;5050389;28;20049;-84
2021/10/12 00:50:37;;;;;;;0.17;0.17;;;;;;;6.76;100.00;101187.59;5052306;28;20040;-86
2021/10/12 00:53:06;;;;;;;0.30;0.30;;;;;;;6.74;100.00;101205.13;5045764;28;20052;-83
2021/10/12 00:55:41;;;;;;;0.28;0.28;;;;;;;6.78;100.00;101199.00;5063517;28;20052;-84
2021/10/12 00:58:16;;;;;;;0.13;0.13;;;;;;;6.81;100.00;101200.41;5068089;28;20052;-83
2021/10/12 01:00:49;;;;;;;0.20;0.20;;;;;;;6.86;100.00;101188.84;5047768;28;20051;-83
2021/10/12 01:03:29;;;;;;;0.20;0.20;;;;;;;6.83;100.00;101192.03;5067217;28;20051;-84
2021/10/12 01:06:03;;;;;;;0.10;0.10;;;;;;;6.83;100.00;101184.72;5067668;28;20393;-85
2021/10/12 01:08:36;;;;;;;0.28;0.28;;;;;;;6.84;100.00;101188.28;5047131;28;20052;-83
2021/10/12 01:11:04;;;;;;;0.20;0.20;;;;;;;6.89;100.00;101189.19;5049082;28;20049;-82
2021/10/12 01:13:32;;;;;;;0.20;0.20;;;;;;;6.94;100.00;101197.38;5049118;28;20048;-83
2021/10/12 01:16:01;;;;;;;0.20;0.20;;;;;;;6.84;100.00;101186.38;5051263;28;20067;-82
2021/10/12 01:18:31;;;;;;;0.20;0.20;;;;;;;6.94;100.00;101193.88;5045452;28;20044;-81
2021/10/12 01:21:07;;;;;;;0.17;0.17;;;;;;;7.04;100.00;101190.53;5065623;28;20411;-81
2021/10/12 01:23:40;;;;;;;0.20;0.20;;;;;;;6.99;100.00;101177.72;5050504;28;20045;-86
2021/10/12 01:26:13;;;;;;;0.20;0.20;;;;;;;6.97;100.00;101175.28;5050517;28;20052;-86
2021/10/12 01:28:42;;;;;;;0.20;0.20;;;;;;;7.01;100.00;101172.88;5066581;28;20052;-85
2021/10/12 01:31:19;;;;;;;0.20;0.20;;;;;;;7.04;100.00;101166.97;5064376;28;20048;-84
2021/10/12 01:33:47;;;;;;;0.30;0.30;;;;;;;7.15;100.00;101155.28;5049329;28;20041;-85
2021/10/12 01:36:22;;;;;;;0.30;0.30;;;;;;;7.15;100.00;101149.03;5062169;28;20040;-85
2021/10/12 01:38:50;;;;;;;0.20;0.20;;;;;;;6.98;100.00;101130.88;5045875;28;20424;-82
2021/10/12 01:41:24;;;;;;;0.10;0.10;;;;;;;7.05;100.00;101124.50;5042677;28;20067;-86
2021/10/12 01:43:52;;;;;;;0.20;0.20;;;;;;;7.08;100.00;101132.94;5042249;28;20049;-84
2021/10/12 01:46:30;;;;;;;0.20;0.20;;;;;;;7.09;100.00;101129.19;5064910;28;20041;-85
2021/10/12 01:49:04;;;;;;;0.22;0.22;;;;;;;7.01;100.00;101115.25;5051326;28;20057;-87
2021/10/12 01:51:38;;;;;;;0.20;0.20;;;;;;;7.03;100.00;101121.22;5061666;28;20049;-85
2021/10/12 01:54:16;;;;;;;0.20;0.20;;;;;;;7.04;100.00;101122.88;5035185;28;20056;-86
2021/10/12 01:56:52;;;;;;;0.20;0.20;;;;;;;7.07;100.00;101114.25;5055358;28;20857;-84
2021/10/12 01:59:25;;;;;;;0.20;0.20;;;;;;;7.11;100.00;101118.94;5068124;28;20472;-84
2021/10/12 02:01:54;;;;;;;0.20;0.20;;;;;;;6.98;100.00;101121.97;5052597;28;20519;-85
2021/10/12 02:04:27;;;;;;;0.20;0.20;;;;;;;6.99;100.00;101123.59;5070256;28;20396;-88
2021/10/12 02:07:01;;;;;;;0.15;0.15;;;;;;;7.00;100.00;101116.31;5054001;28;20040;-89
2021/10/12 02:09:35;;;;;;;0.20;0.20;;;;;;;7.08;100.00;101138.34;5071256;28;20043;-87
2021/10/12 02:12:13;;;;;;;0.20;0.20;;;;;;;7.15;100.00;101149.88;5050281;28;21721;-86
2021/10/12 02:14:46;;;;;;;0.20;0.20;;;;;;;7.08;100.00;101138.34;5067953;28;20048;-87
2021/10/12 02:17:20;;;;;;;0.20;0.20;;;;;;;6.95;100.00;101108.94;5052753;28;20053;-85
2021/10/12 02:19:53;;;;;;;0.20;0.20;;;;;;;7.15;100.00;101094.88;5043279;28;20657;-88
2021/10/12 02:22:28;;;;;;;0.20;0.20;;;;;;;7.08;100.00;101092.34;5072950;28;20040;-85
2021/10/12 02:25:01;;;;;;;0.20;0.20;;;;;;;7.11;100.00;101080.22;5044339;28;20048;-83
2021/10/12 02:27:34;;;;;;;0.20;0.20;;;;;;;7.12;100.00;101042.06;5065473;28;20467;-83
2021/10/12 02:30:09;;;;;;;0.20;0.20;;;;;;;7.06;100.00;101069.31;5053560;28;20067;-83
2021/10/12 02:32:37;;;;;;;0.10;0.10;;;;;;;7.01;100.00;101066.53;5049727;28;20516;-83
2021/10/12 02:35:07;;;;;;;0.20;0.20;;;;;;;6.92;100.00;101058.00;5041483;28;20053;-83
2021/10/12 02:37:41;;;;;;;0.17;0.17;;;;;;;6.85;100.00;101035.69;5063687;28;20045;-82
2021/10/12 02:40:14;;;;;;;0.20;0.20;;;;;;;6.79;100.00;101032.94;5042971;28;20408;-83
2021/10/12 02:42:47;;;;;;;0.20;0.20;;;;;;;6.74;100.00;101022.03;5059273;28;20045;-83
2021/10/12 02:45:21;;;;;;;0.17;0.17;;;;;;;6.73;100.00;101031.19;5051136;28;20052;-84
2021/10/12 02:47:49;;;;;;;0.20;0.20;;;;;;;6.71;100.00;101035.19;5052928;28;20053;-83
2021/10/12 02:50:22;;;;;;;0.20;0.20;;;;;;;6.73;100.00;101036.59;5071888;28;20052;-81
2021/10/12 02:52:51;;;;;;;0.10;0.10;;;;;;;6.67;100.00;101028.63;5045393;28;20045;-83
2021/10/12 02:55:20;;;;;;;0.20;0.20;;;;;;;6.59;100.00;101027.97;5055314;28;20420;-84
2021/10/12 02:57:53;;;;;;;0.20;0.20;;;;;;;6.59;100.00;101036.09;5060750;28;20064;-82
2021/10/12 03:00:21;;;;;;;0.20;0.20;;;;;;;6.58;100.00;101029.03;5050022;28;20060;-83
2021/10/12 03:02:54;;;;;;;0.20;0.20;;;;;;;6.54;100.00;101029.78;5038086;28;20053;-83
2021/10/12 03:05:22;;;;;;;0.20;0.20;;;;;;;6.51;100.00;101036.50;5051985;28;20048;-83
2021/10/12 03:07:57;;;;;;;0.20;0.20;;;;;;;6.54;100.00;101035.19;5063585;28;20063;-83
2021/10/12 03:10:30;;;;;;;0.20;0.20;;;;;;;6.42;100.00;101038.78;5056294;28;20044;-84
2021/10/12 03:13:03;;;;;;;0.20;0.20;;;;;;;6.39;100.00;101036.53;5063561;28;20045;-84
2021/10/12 03:15:32;;;;;;;0.20;0.20;;;;;;;6.31;100.00;101036.94;5065855;28;21716;-85
2021/10/12 03:18:00;;;;;;;0.10;0.10;;;;;;;6.24;100.00;101030.88;5052366;28;20072;-84
2021/10/12 03:20:33;;;;;;;0.13;0.13;;;;;;;6.26;100.00;101032.28;5068133;28;20044;-82
2021/10/12 03:23:07;;;;;;;0.10;0.10;;;;;;;6.19;100.00;101033.50;5049995;28;20063;-83
2021/10/12 03:25:43;;;;;;;0.20;0.20;;;;;;;6.22;100.00;101038.41;5047590;28;20580;-84
2021/10/12 03:28:11;;;;;;;0.20;0.20;;;;;;;6.31;100.00;101028.84;5052934;28;20123;-83
2021/10/12 03:30:44;;;;;;;0.20;0.20;;;;;;;6.26;100.00;101031.47;5053629;28;20700;-84
2021/10/12 03:33:14;;;;;;;0.15;0.15;;;;;;;6.32;100.00;101025.06;5072848;28;20404;-84
2021/10/12 03:35:46;;;;;;;0.20;0.20;;;;;;;6.28;100.00;101013.94;5049252;28;20048;-83
2021/10/12 03:38:21;;;;;;;0.20;0.20;;;;;;;6.31;100.00;101004.50;5047348;28;20055;-84
2021/10/12 03:40:55;;;;;;;0.20;0.20;;;;;;;6.37;100.00;101013.56;5047745;28;20048;-82
2021/10/12 03:43:28;;;;;;;0.20;0.20;;;;;;;6.33;100.00;101009.69;5055235;28;20503;-84
2021/10/12 03:46:01;;;;;;;0.10;0.10;;;;;;;6.24;100.00;100988.47;5067640;28;20048;-83
2021/10/12 03:48:30;;;;;;;0.20;0.20;;;;;;;6.36;100.00;101003.78;5070361;28;20040;-83
2021/10/12 03:51:03;;;;;;;0.20;0.20;;;;;;;6.40;100.00;100999.53;5047892;28;20045;-85
2021/10/12 03:53:38;;;;;;;0.20;0.20;;;;;;;6.43;100.00;100994.44;5068154;28;20045;-82
2021/10/12 03:56:07;;;;;;;0.13;0.13;;;;;;;6.23;100.00;100972.50;5049213;28;20052;-83
2021/10/12 03:58:35;;;;;;;0.20;0.20;;;;;;;6.34;100.00;100985.13;5063025;28;20052;-84
2021/10/12 04:01:03;;;;;;;0.20;0.20;;;;;;;6.37;100.00;100986.50;5063752;28;20040;-84
2021/10/12 04:03:36;;;;;;;0.20;0.20;;;;;;;6.33;100.00;100979.97;5052005;28;20040;-83
2021/10/12 04:06:09;;;;;;;0.20;0.20;;;;;;;6.37;100.00;100981.09;5050742;28;20058;-84
2021/10/12 04:08:39;;;;;;;0.20;0.20;;;;;;;6.41;100.00;100976.84;5068071;28;20051;-83
2021/10/12 04:11:12;;;;;;;0.20;0.20;;;;;;;6.46;100.00;100985.03;5045058;28;20048;-83
2021/10/12 04:13:45;;;;;;;0.20;0.20;;;;;;;6.41;100.00;100980.38;5066751;28;20401;-84
2021/10/12 04:16:18;;;;;;;0.20;0.20;;;;;;;6.38;100.00;100975.47;5066395;28;20059;-84
2021/10/12 04:18:51;;;;;;;0.20;0.20;;;;;;;6.38;100.00;100967.34;5042465;28;20044;-86
2021/10/12 04:21:26;;;;;;;0.20;0.20;;;;;;;6.41;100.00;100980.38;5054542;28;20059;-83
2021/10/12 04:23:56;;;;;;;0.10;0.10;;;;;;;6.31;100.00;100974.78;5054955;28;20036;-87
2021/10/12 04:26:25;;;;;;;0.10;0.10;;;;;;;6.38;100.00;100985.44;5050836;28;20052;-83
2021/10/12 04:28:58;;;;;;;0.20;0.20;;;;;;;6.36;100.00;100965.94;5051019;28;20071;-84
2021/10/12 04:31:26;;;;;;;0.13;0.13;;;;;;;6.34;100.00;100965.34;5069937;28;21063;-83
2021/10/12 04:33:59;;;;;;;0.20;0.20;;;;;;;6.43;100.00;100985.53;5038123;28;20045;-86
2021/10/12 04:36:33;;;;;;;0.20;0.20;;;;;;;6.29;100.00;100963.41;5066399;28;20047;-85
2021/10/12 04:39:07;;;;;;;0.10;0.10;;;;;;;6.34;100.00;100976.16;5071749;28;20044;-85
2021/10/12 04:41:41;;;;;;;0.20;0.20;;;;;;;6.25;100.00;100957.66;5053396;28;20052;-84
2021/10/12 04:44:11;;;;;;;0.20;0.20;;;;;;;6.25;100.00;100965.75;5063499;28;20051;-87
2021/10/12 04:46:44;;;;;;;0.20;0.20;;;;;;;6.25;100.00;100962.25;5052718;28;20392;-85
2021/10/12 04:49:13;;;;;;;0.20;0.20;;;;;;;6.28;100.00;100969.84;5053606;28;20058;-87
2021/10/12 04:51:46;;;;;;;0.20;0.20;;;;;;;6.14;100.00;100958.53;5069178;28;20115;-86
2021/10/12 04:54:21;;;;;;;0.28;0.28;;;;;;;6.18;100.00;100965.09;5045259;28;20501;-87
2021/10/12 04:56:50;;;;;;;0.17;0.17;;;;;;;6.09;100.00;100955.75;5043683;28;20489;-83
2021/10/12 05:02:40;;;;;;;0.20;0.20;;;;;;;6.06;100.00;100965.19;5051882;28;20548;-84
2021/10/12 05:05:13;;;;;;;0.20;0.20;;;;;;;5.99;100.00;100950.97;5067527;28;20492;-84
2021/10/12 05:07:41;;;;;;;0.20;0.20;;;;;;;6.03;100.00;100957.53;5048237;28;20055;-84
2021/10/12 05:10:17;;;;;;;0.10;0.10;;;;;;;5.96;100.00;100957.66;5047939;28;20045;-83
2021/10/12 05:12:51;;;;;;;0.20;0.20;;;;;;;5.93;100.00;100951.94;5046630;28;20049;-86
2021/10/12 05:15:22;;;;;;;0.10;0.10;;;;;;;5.91;100.00;100949.47;5051566;28;20134;-84
2021/10/12 05:17:51;;;;;;;0.17;0.17;;;;;;;5.76;100.00;100912.19;5070833;28;20044;-85
2021/10/12 05:20:20;;;;;;;0.20;0.20;;;;;;;5.91;100.00;100949.47;5051936;28;20044;-85
2021/10/12 05:22:53;;;;;;;0.10;0.10;;;;;;;6.01;100.00;100945.31;5051145;28;20138;-84
2021/10/12 05:25:23;;;;;;;0.20;0.20;;;;;;;5.97;100.00;100953.09;5042236;28;20044;-85
2021/10/12 05:27:57;;;;;;;0.20;0.20;;;;;;;5.90;100.00;100957.81;5051759;28;20063;-83
2021/10/12 05:30:34;;;;;;;0.20;0.20;;;;;;;5.91;100.00;100943.22;5060448;28;20049;-83
2021/10/12 05:33:02;;;;;;;0.20;0.20;;;;;;;6.01;100.00;100956.13;5041334;28;20053;-86
2021/10/12 05:35:35;;;;;;;0.10;0.10;;;;;;;5.85;100.00;100923.41;5071730;28;20048;-85
2021/10/12 05:38:08;;;;;;;0.20;0.20;;;;;;;5.93;100.00;100941.94;5048447;28;20067;-85
2021/10/12 05:40:43;;;;;;;0.20;0.20;;;;;;;5.99;100.00;100942.88;5048084;28;20511;-83
2021/10/12 05:43:17;;;;;;;0.20;0.20;;;;;;;6.01;100.00;100946.16;5050959;28;20056;-82
2021/10/12 05:45:50;;;;;;;0.17;0.17;;;;;;;6.04;100.00;100944.88;5072559;28;20038;-86
2021/10/12 05:48:24;;;;;;;0.15;0.15;;;;;;;6.05;100.00;100941.91;5051098;28;20055;-84
2021/10/12 05:50:57;;;;;;;0.20;0.20;;;;;;;6.03;100.00;100946.72;5052818;28;20060;-87
2021/10/12 05:53:27;;;;;;;0.20;0.20;;;;;;;5.88;100.00;100908.59;5053712;28;20075;-84
2021/10/12 05:56:03;;;;;;;0.20;0.20;;;;;;;6.04;100.00;100942.97;5069883;28;20432;-84
2021/10/12 05:58:41;;;;;;;0.20;0.20;;;;;;;6.03;100.00;100935.09;5070203;28;20119;-87
2021/10/12 06:01:18;;;;;;;0.30;0.30;;;;;;;6.11;100.00;100950.94;5058472;28;20393;-83
2021/10/12 06:03:47;;;;;;;0.20;0.20;;;;;;;6.11;100.00;100950.94;5065677;28;20067;-85
2021/10/12 06:06:20;;;;;;;0.15;0.15;;;;;;;6.12;100.00;100944.47;5054406;28;20055;-85
2021/10/12 06:08:48;;;;;;;0.17;0.17;;;;;;;6.18;100.00;100962.41;5053627;28;20052;-86
2021/10/12 06:11:18;;;;;;;0.20;0.20;;;;;;;6.15;100.00;100952.06;5047565;28;20063;-85
2021/10/12 06:13:47;;;;;;;0.20;0.20;;;;;;;6.21;100.00;100958.38;5052979;28;20069;-84
2021/10/12 06:16:20;;;;;;;0.20;0.20;;;;;;;6.24;100.00;100957.91;5049767;28;20048;-86
2021/10/12 06:18:54;;;;;;;0.20;0.20;;;;;;;6.26;100.00;100948.47;5054734;28;20048;-85
2021/10/12 06:21:28;;;;;;;0.20;0.20;;;;;;;6.37;100.00;100973.81;5062144;28;20056;-87
2021/10/12 06:24:01;;;;;;;0.30;0.30;;;;;;;6.43;100.00;100970.13;5053535;28;20060;-84
2021/10/12 06:26:30;;;;;;;0.20;0.20;;;;;;;6.54;100.00;100965.69;5052087;28;20049;-86
2021/10/12 06:28:58;;;;;;;0.20;0.20;;;;;;;6.37;100.00;100938.66;5050992;28;20056;-89
2021/10/12 06:31:27;;;;;;;0.20;0.20;;;;;;;6.54;100.00;100956.78;5068676;28;20485;-86
2021/10/12 06:33:56;;;;;;;0.20;0.20;;;;;;;6.56;100.00;100970.84;5044357;28;20048;-86
2021/10/12 06:36:31;;;;;;;0.20;0.20;;;;;;;6.58;100.00;100979.56;5059003;28;20040;-85
2021/10/12 06:39:04;;;;;;;0.20;0.20;;;;;;;6.54;100.00;100978.41;5062564;28;20053;-85
2021/10/12 06:41:33;;;;;;;0.25;0.25;;;;;;;6.50;100.00;100975.38;5042809;28;20076;-85
2021/10/12 06:44:02;;;;;;;0.20;0.20;;;;;;;6.50;100.00;100975.38;5045336;28;20048;-87
2021/10/12 06:46:36;;;;;;;0.20;0.20;;;;;;;6.52;100.00;100981.38;5063035;28;20045;-86
2021/10/12 06:49:09;;;;;;;0.20;0.20;;;;;;;6.47;100.00;100975.88;5041287;28;20403;-83
2021/10/12 06:51:44;;;;;;;0.20;0.20;;;;;;;6.50;100.00;100979.97;5062749;28;20768;-84
2021/10/12 06:54:12;;;;;;;0.20;0.20;;;;;;;6.50;100.00;100980.78;5062514;28;20044;-87
2021/10/12 06:56:48;;;;;;;0.20;0.20;;;;;;;6.49;100.00;100987.25;5049297;28;20056;-84
2021/10/12 06:59:24;;;;;;;0.20;0.20;;;;;;;6.46;100.00;100985.88;5062510;28;20060;-83
2021/10/12 07:01:57;;;;;;;0.20;0.20;;;;;;;6.56;100.00;100990.63;5045075;28;20515;-84
2021/10/12 07:04:25;;;;;;;0.20;0.20;;;;;;;6.56;100.00;100985.22;5051204;28;20075;-83
2021/10/12 07:06:58;;;;;;;0.10;0.10;;;;;;;6.58;100.00;100990.38;5034267;28;20063;-86
2021/10/12 07:09:31;;;;;;;0.20;0.20;;;;;;;6.61;100.00;100995.28;5036662;28;20059;-87
2021/10/12 07:12:06;;;;;;;0.15;0.15;;;;;;;6.56;100.00;100987.91;5037409;28;20063;-84
2021/10/12 07:14:39;;;;;;;0.20;0.20;;;;;;;6.75;100.00;100995.78;5052864;28;20813;-84
2021/10/12 07:17:12;;;;;;;0.20;0.20;;;;;;;6.69;100.00;100994.88;5054410;28;20055;-85
2021/10/12 07:19:45;;;;;;;0.20;0.20;;;;;;;6.68;100.00;100990.53;5055085;28;20065;-85
2021/10/12 07:22:24;;;;;;;0.30;0.30;;;;;;;6.68;100.00;100998.63;5053611;28;20048;-86
2021/10/12 07:25:02;;;;;;;0.20;0.20;;;;;;;6.73;100.00;100995.22;5057107;28;20063;-86
2021/10/12 07:27:41;;;;;;;0.17;0.17;;;;;;;6.76;100.00;100995.53;5032830;28;20052;-84
2021/10/12 07:30:14;;;;;;;0.13;0.13;;;;;;;6.75;100.00;100984.97;5034703;28;20056;-86
2021/10/12 07:32:47;;;;;;;0.17;0.17;;;;;;;6.90;100.00;100992.50;5035051;28;20693;-86
2021/10/12 07:35:15;;;;;;;0.10;0.10;;;;;;;6.90;100.00;100987.88;5053648;28;20052;-85
2021/10/12 07:37:49;;;;;;;0.10;0.10;;;;;;;6.93;100.00;100994.69;5055403;28;20056;-85
2021/10/12 07:40:23;;;;;;;0.15;0.15;;;;;;;6.87;100.00;100998.41;5034862;28;20067;-84
2021/10/12 07:42:57;;;;;;;0.20;0.20;;;;;;;6.86;100.00;100997.56;5037216;28;20637;-86
2021/10/12 07:45:31;;;;;;;0.20;0.20;;;;;;;6.89;100.00;100997.09;5037262;28;20067;-85
2021/10/12 07:48:04;;;;;;;0.20;0.20;;;;;;;6.92;100.00;101007.41;5039198;28;20044;-86
2021/10/12 07:50:37;;;;;;;0.20;0.20;;;;;;;7.01;100.00;101007.00;5033502;28;20067;-86
2021/10/12 07:53:12;;;;;;;0.20;0.20;;;;;;;7.01;100.00;101005.09;5034301;28;20060;-84
2021/10/12 07:55:43;;;;;;;0.20;0.20;;;;;;;6.97;100.00;100998.53;5056635;28;20057;-86
2021/10/12 07:58:17;;;;;;;0.22;0.22;;;;;;;6.94;100.00;100989.03;5056785;28;20048;-88
2021/10/12 08:00:45;;;;;;;0.20;0.20;;;;;;;6.94;100.00;100989.03;5041286;28;20068;-86
2021/10/12 08:03:20;;;;;;;0.20;0.20;;;;;;;7.08;100.00;100994.09;5037239;28;20059;-88
2021/10/12 08:05:54;;;;;;;0.20;0.20;;;;;;;7.10;100.00;100997.41;5037221;28;20056;-87
2021/10/12 08:08:53;;;;;;;0.15;0.15;;;;;;;7.05;100.00;101000.03;5039799;28;20061;-85
2021/10/12 08:11:35;;;;;;;0.20;0.20;;;;;;;7.04;100.00;100998.38;5053854;28;20055;-85
2021/10/12 08:14:07;;;;;;;0.10;0.10;;;;;;;7.10;100.00;100990.09;5050337;28;20052;-88
2021/10/12 08:16:43;;;;;;;0.20;0.20;;;;;;;7.08;100.00;100994.09;5030032;28;20063;-82
2021/10/12 08:19:17;;;;;;;0.20;0.20;;;;;;;7.20;100.00;100992.13;5034101;28;20053;-85
2021/10/12 08:21:50;;;;;;;0.15;0.15;;;;;;;7.20;100.00;100988.59;5051774;28;21338;-85
2021/10/12 08:24:23;;;;;;;0.70;0.30;;;;;;;7.14;100.00;100976.88;5035882;28;20830;-84
2021/10/12 08:26:58;;;;;;;0.30;0.30;;;;;;;7.37;100.00;100973.13;5053534;28;21610;-85
2021/10/12 08:29:33;;;;;;;0.20;0.20;;;;;;;7.30;100.00;100970.59;5031353;28;20048;-83
2021/10/12 08:32:01;;;;;;;0.22;0.22;;;;;;;7.27;100.00;100973.00;5033948;28;20060;-84
2021/10/12 08:34:29;;;;;;;0.10;0.10;;;;;;;7.29;100.00;100963.56;5038026;28;20044;-85
2021/10/12 08:37:04;;;;;;;0.20;0.20;;;;;;;7.30;100.00;100967.06;5035616;28;20059;-84
2021/10/12 08:39:44;;;;;;;0.20;0.20;;;;;;;7.32;100.00;100965.75;5034676;28;20052;-84
2021/10/12 08:42:25;;;;;;;0.30;0.30;;;;;;;7.37;100.00;100964.19;5049962;28;20060;-84
2021/10/12 08:44:57;;;;;;;0.30;0.30;;;;;;;7.37;100.00;100964.19;5037612;28;20063;-85
2021/10/12 08:47:32;;;;;;;0.20;0.20;;;;;;;7.38;100.00;100963.13;5053482;28;20119;-84
2021/10/12 08:50:08;;;;;;;0.20;0.20;;;;;;;7.39;100.00;100959.31;5029510;28;20052;-84
2021/10/12 08:52:41;;;;;;;0.25;0.25;;;;;;;7.44;100.00;100954.81;5040723;28;20053;-82
2021/10/12 08:55:16;;;;;;;0.20;0.20;;;;;;;7.53;100.00;100965.22;5026290;28;20607;-84
2021/10/12 08:57:49;;;;;;;0.20;0.20;;;;;;;7.59;100.00;100956.88;5036901;28;20053;-84
2021/10/12 09:00:21;;;;;;;0.10;0.10;;;;;;;7.51;100.00;100964.63;5056925;28;20068;-84
2021/10/12 09:03:15;;;;;;;0.10;0.10;;;;;;;7.55;100.00;100949.50;5033024;28;20060;-82
2021/10/12 09:05:53;;;;;;;0.20;0.20;;;;;;;7.60;100.00;100952.28;5031492;28;20652;-83
2021/10/12 09:08:26;;;;;;;0.30;0.30;;;;;;;7.60;100.00;100960.41;5050426;28;20044;-82
2021/10/12 09:11:00;;;;;;;0.20;0.20;;;;;;;7.66;100.00;100946.69;5035750;28;20051;-85
2021/10/12 09:13:28;;;;;;;0.20;0.20;;;;;;;7.65;100.00;100944.19;5034668;28;20064;-83
2021/10/12 09:16:09;;;;;;;0.20;0.20;;;;;;;7.65;100.00;100945.03;5025844;28;20059;-84
2021/10/12 09:18:53;;;;;;;0.17;0.17;;;;;;;7.82;100.00;100950.34;5045304;28;20071;-84
2021/10/12 09:21:30;;;;;;;0.20;0.20;;;;;;;7.77;100.00;100944.06;5047904;28;20048;-83
2021/10/12 09:24:08;;;;;;;0.17;0.17;;;;;;;7.82;100.00;100946.84;5035303;28;20063;-84
2021/10/12 09:26:43;;;;;;;0.10;0.10;;;;;;;7.90;100.00;100946.38;5046920;28;20048;-83
2021/10/12 09:29:16;;;;;;;0.20;0.20;;;;;;;7.84;100.00;100939.25;5028185;28;20060;-84
2021/10/12 09:31:54;;;;;;;0.30;0.30;;;;;;;7.92;100.00;100955.06;5027130;28;20066;-83
2021/10/12 09:34:23;;;;;;;0.28;0.28;;;;;;;8.02;100.00;100957.06;5032132;28;20052;-84
2021/10/12 09:36:56;;;;;;;0.20;0.20;;;;;;;8.08;100.00;100961.47;5037989;28;20511;-85
2021/10/12 09:39:32;;;;;;;0.20;0.20;;;;;;;8.07;100.00;100942.75;5038913;28;20051;-82
2021/10/12 09:42:02;;;;;;;0.20;0.20;;;;;;;8.15;100.00;100953.94;5032352;28;20761;-85
2021/10/12 09:44:38;;;;;;;0.25;0.25;;;;;;;8.15;100.00;100953.94;5050704;28;20036;-84
2021/10/12 09:47:15;;;;;;;0.28;0.28;;;;;;;8.11;100.00;100960.94;5046923;28;20055;-83
2021/10/12 09:49:48;;;;;;;0.28;0.28;;;;;;;8.23;100.00;100952.66;5035992;28;20064;-84
2021/10/12 09:52:20;;;;;;;0.20;0.20;;;;;;;8.28;100.00;100958.13;5051909;28;20056;-85
2021/10/12 09:54:52;;;;;;;0.20;0.20;;;;;;;8.37;100.00;100949.50;5032191;28;20060;-83
2021/10/12 09:57:30;;;;;;;0.20;0.20;;;;;;;8.30;100.00;100949.72;5027174;28;20048;-84
2021/10/12 10:00:05;;;;;;;0.20;0.20;;;;;;;8.34;100.00;100951.69;5027701;28;20048;-85
2021/10/12 10:02:45;;;;;;;0.20;0.20;;;;;;;8.35;100.00;100944.34;5045697;28;20052;-84
2021/10/12 10:05:20;;;;;;;0.20;0.20;;;;;;;8.43;100.00;100960.16;5050579;28;20044;-86
2021/10/12 10:07:56;;;;;;;0.20;0.20;;;;;;;8.40;100.00;100947.13;5049064;28;20044;-84
2021/10/12 10:10:26;;;;;;;0.20;0.20;;;;;;;8.53;100.00;100942.34;5025263;28;20071;-84
2021/10/12 10:13:00;;;;;;;0.20;0.20;;;;;;;8.48;100.00;100943.16;5028781;28;20056;-84
2021/10/12 10:15:35;;;;;;;0.20;0.20;;;;;;;8.31;100.00;100943.22;5053231;28;20071;-85
2021/10/12 10:18:13;;;;;;;0.15;0.15;;;;;;;8.25;100.00;100934.22;5048016;28;20044;-83
2021/10/12 10:20:50;;;;;;;0.20;0.20;;;;;;;8.33;100.00;100941.91;5017554;28;20087;-84
2021/10/12 10:23:54;;;;;;;0.20;0.20;;;;;;;8.41;100.00;100948.75;5036893;28;20052;-83
2021/10/12 10:26:29;;;;;;;0.20;0.20;;;;;;;8.55;100.00;100942.91;5032275;28;20056;-85
2021/10/12 10:29:37;;;;;;;0.20;0.20;;;;;;;8.60;100.00;100945.66;5032761;28;20052;-85
2021/10/12 10:32:16;;;;;;;0.20;0.20;;;;;;;8.56;100.00;100947.25;4977637;28;20062;-85
2021/10/12 10:35:01;;;;;;;0.20;0.20;;;;;;;8.74;100.00;100948.75;5024279;28;20061;-83
2021/10/12 10:37:35;;;;;;;0.20;0.20;;;;;;;8.65;100.00;100937.56;5030717;28;20056;-84
2021/10/12 10:40:34;;;;;;;0.20;0.20;;;;;;;8.76;99.14;100939.25;5033062;28;20048;-83
2021/10/12 10:43:51;;;;;;;0.20;0.20;;;;;;;8.75;99.83;100936.81;5032998;28;20059;-84
2021/10/12 10:46:38;;;;;;;0.20;0.20;;;;;;;8.57;99.08;100941.56;5033490;28;20613;-84
2021/10/12 10:49:16;;;;;;;0.10;0.10;;;;;;;8.59;100.00;100944.84;5054643;28;20083;-84
2021/10/12 10:51:56;;;;;;;0.10;0.10;;;;;;;8.65;98.09;100945.72;5028439;28;20672;-83
2021/10/12 10:55:02;;;;;;;0.20;0.20;;;;;;;8.74;99.95;100949.56;5030536;28;20672;-84
2021/10/12 10:57:35;;;;;;;0.20;0.20;;;;;;;8.81;98.69;100949.31;5040444;28;21181;-85
2021/10/12 11:00:24;;;;;;;0.10;0.10;;;;;;;9.01;97.15;100944.03;5034565;28;20055;-84
2021/10/12 11:02:54;;;;;;;0.20;0.20;;;;;;;8.93;95.36;100941.81;5034781;28;21102;-84
2021/10/12 11:05:35;;;;;;;0.30;0.30;;;;;;;8.89;96.04;100918.97;5049539;28;20048;-85
2021/10/12 11:08:11;;;;;;;0.20;0.20;;;;;;;9.11;95.18;100937.84;5032394;28;20052;-85
2021/10/12 11:10:46;;;;;;;0.20;0.20;;;;;;;9.28;100.00;100940.38;5048842;28;20048;-84
2021/10/12 11:13:30;;;;;;;0.20;0.20;;;;;;;9.43;96.90;100934.19;5033433;28;20052;-84
2021/10/12 11:16:06;;;;;;;0.20;0.20;;;;;;;9.32;95.08;100927.06;5032147;28;20049;-84
2021/10/12 11:18:41;;;;;;;0.17;0.17;;;;;;;9.23;91.82;100931.41;5034776;28;20075;-84
2021/10/12 11:21:16;;;;;;;0.13;0.13;;;;;;;9.42;100.00;100939.88;5035046;28;20060;-85
2021/10/12 11:23:54;;;;;;;0.28;0.28;;;;;;;9.50;95.67;100940.19;5033715;28;20053;-84
2021/10/12 11:26:29;;;;;;;0.20;0.20;;;;;;;9.69;97.38;100929.66;5044318;28;20048;-84
2021/10/12 11:29:06;;;;;;;0.20;0.20;;;;;;;9.59;93.33;100931.53;5047358;28;20049;-83
2021/10/12 11:31:43;;;;;;;0.22;0.22;;;;;;;9.48;92.45;100938.81;5026999;28;20080;-84
2021/10/12 11:34:25;;;;;;;0.22;0.22;;;;;;;9.51;91.18;100927.41;5045977;28;20052;-86
2021/10/12 11:36:54;;;;;;;0.20;0.20;;;;;;;9.58;89.53;100932.59;5035877;28;20064;-82
2021/10/12 11:39:28;;;;;;;0.20;0.20;;;;;;;9.57;94.11;100939.97;5029671;28;20424;-85
2021/10/12 11:42:03;;;;;;;0.17;0.17;;;;;;;9.76;96.88;100942.19;5030994;28;20056;-86
2021/10/12 11:44:36;;;;;;;0.20;0.20;;;;;;;9.58;94.31;100944.28;5047648;28;20044;-83
2021/10/12 11:47:05;;;;;;;0.20;0.20;;;;;;;9.48;92.71;100933.41;5047485;28;20060;-83
2021/10/12 11:49:43;;;;;;;0.20;0.20;;;;;;;9.44;91.84;100935.81;5049258;28;20809;-86
2021/10/12 11:52:11;;;;;;;0.17;0.17;;;;;;;9.30;91.13;100929.25;5052382;28;20404;-84
2021/10/12 11:54:46;;;;;;;0.25;0.25;;;;;;;9.25;94.57;100932.75;5035937;28;20052;-85
2021/10/12 11:57:17;;;;;;;0.25;0.25;;;;;;;9.18;93.71;100937.59;5053001;28;20052;-85
2021/10/12 11:59:56;;;;;;;0.20;0.20;;;;;;;9.26;93.49;100928.16;5028214;28;20044;-84
2021/10/12 12:02:29;;;;;;;0.20;0.20;;;;;;;9.31;91.14;100925.47;5029382;28;20048;-84